sensor_id;sensor_type;location;lat;lon;timestamp;pressure;altitude;pressure_sealevel;temperature;humidity
39275;BME280;24980;48.874;2.332;2023-07-22T00:01:54;101190.05;;;26.42;36.36
39275;BME280;24980;48.874;2.332;2023-07-22T00:04:25;101190.48;;;26.41;36.36
39275;BME280;24980;48.874;2.332;2023-07-22T00:06:55;101189.98;;;26.40;36.37
39275;BME280;24980;48.874;2.332;2023-07-22T00:09:25;101191.20;;;26.39;36.37
39275;BME280;24980;48.874;2.332;2023-07-22T00:11:55;101185.59;;;26.39;36.36
39275;BME280;24980;48.874;2.332;2023-07-22T00:14:25;101185.80;;;26.39;36.34
39275;BME280;24980;48.874;2.332;2023-07-22T00:16:56;101179.11;;;26.37;36.34
39275;BME280;24980;48.874;2.332;2023-07-22T00:19:26;101180.91;;;26.36;36.34
39275;BME280;24980;48.874;2.332;2023-07-22T00:21:56;101182.43;;;26.37;36.33
39275;BME280;24980;48.874;2.332;2023-07-22T00:24:26;101183.51;;;26.35;36.32
39275;BME280;24980;48.874;2.332;2023-07-22T00:26:56;101179.27;;;26.35;36.32
39275;BME280;24980;48.874;2.332;2023-07-22T00:29:26;101177.06;;;26.34;36.31
39275;BME280;24980;48.874;2.332;2023-07-22T00:31:57;101177.64;;;26.32;36.31
39275;BME280;24980;48.874;2.332;2023-07-22T00:34:27;101181.08;;;26.33;36.29
39275;BME280;24980;48.874;2.332;2023-07-22T00:36:57;101184.97;;;26.31;36.28
39275;BME280;24980;48.874;2.332;2023-07-22T00:39:27;101180.45;;;26.32;36.28
39275;BME280;24980;48.874;2.332;2023-07-22T00:41:57;101178.95;;;26.31;36.28
39275;BME280;24980;48.874;2.332;2023-07-22T00:44:27;101176.30;;;26.31;36.27
39275;BME280;24980;48.874;2.332;2023-07-22T00:46:57;101175.80;;;26.30;36.28
39275;BME280;24980;48.874;2.332;2023-07-22T00:49:28;101174.95;;;26.30;36.28
39275;BME280;24980;48.874;2.332;2023-07-22T00:54:29;101171.73;;;26.30;36.28
39275;BME280;24980;48.874;2.332;2023-07-22T00:56:59;101172.28;;;26.29;36.29
39275;BME280;24980;48.874;2.332;2023-07-22T00:59:30;101166.61;;;26.28;36.28
39275;BME280;24980;48.874;2.332;2023-07-22T01:02:00;101167.12;;;26.28;36.28
39275;BME280;24980;48.874;2.332;2023-07-22T01:04:33;101169.07;;;26.28;36.27
39275;BME280;24980;48.874;2.332;2023-07-22T01:07:02;101168.56;;;26.28;36.27
39275;BME280;24980;48.874;2.332;2023-07-22T01:09:37;101168.50;;;26.27;36.27
39275;BME280;24980;48.874;2.332;2023-07-22T01:12:01;101166.52;;;26.26;36.25
39275;BME280;24980;48.874;2.332;2023-07-22T01:14:32;101165.84;;;26.26;36.25
39275;BME280;24980;48.874;2.332;2023-07-22T01:17:03;101164.31;;;26.25;36.24
39275;BME280;24980;48.874;2.332;2023-07-22T01:19:33;101163.72;;;26.25;36.23
39275;BME280;24980;48.874;2.332;2023-07-22T01:22:04;101166.45;;;26.24;36.22
39275;BME280;24980;48.874;2.332;2023-07-22T01:24:33;101160.93;;;26.24;36.23
39275;BME280;24980;48.874;2.332;2023-07-22T01:27:18;101159.50;;;26.23;36.24
39275;BME280;24980;48.874;2.332;2023-07-22T01:29:37;101154.62;;;26.22;36.24
39275;BME280;24980;48.874;2.332;2023-07-22T01:32:05;101149.53;;;26.22;36.24
39275;BME280;24980;48.874;2.332;2023-07-22T01:34:35;101151.48;;;26.22;36.24
39275;BME280;24980;48.874;2.332;2023-07-22T01:37:05;101150.64;;;26.21;36.25
39275;BME280;24980;48.874;2.332;2023-07-22T01:39:35;101149.55;;;26.21;36.25
39275;BME280;24980;48.874;2.332;2023-07-22T01:42:06;101144.03;;;26.20;36.26
39275;BME280;24980;48.874;2.332;2023-07-22T01:44:36;101142.30;;;26.19;36.26
39275;BME280;24980;48.874;2.332;2023-07-22T01:47:06;101143.91;;;26.19;36.26
39275;BME280;24980;48.874;2.332;2023-07-22T01:49:35;101140.11;;;26.18;36.24
39275;BME280;24980;48.874;2.332;2023-07-22T01:52:06;101139.17;;;26.18;36.23
39275;BME280;24980;48.874;2.332;2023-07-22T01:54:36;101142.37;;;26.17;36.22
39275;BME280;24980;48.874;2.332;2023-07-22T01:57:06;101144.16;;;26.16;36.21
39275;BME280;24980;48.874;2.332;2023-07-22T01:59:36;101147.56;;;26.16;36.20
39275;BME280;24980;48.874;2.332;2023-07-22T02:02:06;101145.94;;;26.15;36.20
39275;BME280;24980;48.874;2.332;2023-07-22T02:04:42;101141.28;;;26.14;36.20
39275;BME280;24980;48.874;2.332;2023-07-22T02:07:07;101139.03;;;26.13;36.19
39275;BME280;24980;48.874;2.332;2023-07-22T02:09:37;101143.70;;;26.13;36.19
39275;BME280;24980;48.874;2.332;2023-07-22T02:12:08;101141.50;;;26.12;36.19
39275;BME280;24980;48.874;2.332;2023-07-22T02:14:38;101139.82;;;26.11;36.19
39275;BME280;24980;48.874;2.332;2023-07-22T02:17:08;101143.90;;;26.11;36.18
39275;BME280;24980;48.874;2.332;2023-07-22T02:19:38;101141.32;;;26.10;36.17
39275;BME280;24980;48.874;2.332;2023-07-22T02:22:08;101141.42;;;26.09;36.17
39275;BME280;24980;48.874;2.332;2023-07-22T02:24:38;101143.81;;;26.08;36.16
39275;BME280;24980;48.874;2.332;2023-07-22T02:27:08;101143.22;;;26.08;36.16
39275;BME280;24980;48.874;2.332;2023-07-22T02:29:38;101143.44;;;26.07;36.16
39275;BME280;24980;48.874;2.332;2023-07-22T02:32:08;101137.00;;;26.06;36.15
39275;BME280;24980;48.874;2.332;2023-07-22T02:34:38;101136.41;;;26.05;36.14
39275;BME280;24980;48.874;2.332;2023-07-22T02:37:08;101141.43;;;26.05;36.14
39275;BME280;24980;48.874;2.332;2023-07-22T02:39:38;101138.90;;;26.04;36.14
39275;BME280;24980;48.874;2.332;2023-07-22T02:42:13;101138.34;;;26.03;36.12
39275;BME280;24980;48.874;2.332;2023-07-22T02:44:45;101141.24;;;26.03;36.11
39275;BME280;24980;48.874;2.332;2023-07-22T02:47:10;101143.80;;;26.03;36.11
39275;BME280;24980;48.874;2.332;2023-07-22T02:49:40;101141.42;;;26.02;36.12
39275;BME280;24980;48.874;2.332;2023-07-22T02:52:10;101143.64;;;26.01;36.12
39275;BME280;24980;48.874;2.332;2023-07-22T02:54:40;101142.63;;;26.01;36.13
39275;BME280;24980;48.874;2.332;2023-07-22T02:57:10;101141.45;;;26.01;36.12
39275;BME280;24980;48.874;2.332;2023-07-22T02:59:44;101141.08;;;26.00;36.12
39275;BME280;24980;48.874;2.332;2023-07-22T03:02:11;101143.39;;;25.98;36.12
39275;BME280;24980;48.874;2.332;2023-07-22T03:04:41;101141.27;;;25.98;36.12
39275;BME280;24980;48.874;2.332;2023-07-22T03:07:11;101147.52;;;25.97;36.11
39275;BME280;24980;48.874;2.332;2023-07-22T03:09:41;101149.89;;;25.97;36.11
39275;BME280;24980;48.874;2.332;2023-07-22T03:12:11;101147.55;;;25.95;36.11
39275;BME280;24980;48.874;2.332;2023-07-22T03:14:41;101147.88;;;25.95;36.09
39275;BME280;24980;48.874;2.332;2023-07-22T03:17:11;101144.07;;;25.94;36.09
39275;BME280;24980;48.874;2.332;2023-07-22T03:19:42;101145.47;;;25.94;36.09
39275;BME280;24980;48.874;2.332;2023-07-22T03:22:14;101145.22;;;25.94;36.08
39275;BME280;24980;48.874;2.332;2023-07-22T03:24:42;101144.12;;;25.93;36.07
39275;BME280;24980;48.874;2.332;2023-07-22T03:27:14;101142.61;;;25.92;36.08
39275;BME280;24980;48.874;2.332;2023-07-22T03:29:43;101141.34;;;25.92;36.07
39275;BME280;24980;48.874;2.332;2023-07-22T03:32:13;101146.56;;;25.91;36.07
39275;BME280;24980;48.874;2.332;2023-07-22T03:34:44;101146.33;;;25.90;36.07
39275;BME280;24980;48.874;2.332;2023-07-22T03:37:13;101152.62;;;25.89;36.05
39275;BME280;24980;48.874;2.332;2023-07-22T03:39:43;101156.95;;;25.89;36.05
39275;BME280;24980;48.874;2.332;2023-07-22T03:42:13;101157.09;;;25.88;36.05
39275;BME280;24980;48.874;2.332;2023-07-22T03:44:43;101151.42;;;25.87;36.05
39275;BME280;24980;48.874;2.332;2023-07-22T03:47:15;101151.52;;;25.86;36.05
39275;BME280;24980;48.874;2.332;2023-07-22T03:49:44;101149.70;;;25.84;36.05
39275;BME280;24980;48.874;2.332;2023-07-22T03:52:14;101157.43;;;25.84;36.05
39275;BME280;24980;48.874;2.332;2023-07-22T03:54:44;101156.94;;;25.83;36.04
39275;BME280;24980;48.874;2.332;2023-07-22T03:57:16;101155.24;;;25.83;36.03
39275;BME280;24980;48.874;2.332;2023-07-22T03:59:45;101150.20;;;25.81;36.03
39275;BME280;24980;48.874;2.332;2023-07-22T04:02:23;101148.84;;;25.81;36.03
39275;BME280;24980;48.874;2.332;2023-07-22T04:04:50;101148.09;;;25.80;36.03
39275;BME280;24980;48.874;2.332;2023-07-22T04:07:16;101145.56;;;25.80;36.01
39275;BME280;24980;48.874;2.332;2023-07-22T04:09:49;101149.55;;;25.79;36.01
39275;BME280;24980;48.874;2.332;2023-07-22T04:12:17;101148.21;;;25.78;36.01
39275;BME280;24980;48.874;2.332;2023-07-22T04:14:47;101147.32;;;25.78;36.01
39275;BME280;24980;48.874;2.332;2023-07-22T04:17:17;101145.80;;;25.77;36.01
39275;BME280;24980;48.874;2.332;2023-07-22T04:19:47;101147.42;;;25.76;36.01
39275;BME280;24980;48.874;2.332;2023-07-22T04:22:17;101147.86;;;25.76;36.01
39275;BME280;24980;48.874;2.332;2023-07-22T04:24:47;101147.65;;;25.75;36.01
39275;BME280;24980;48.874;2.332;2023-07-22T04:27:17;101152.25;;;25.74;36.02
39275;BME280;24980;48.874;2.332;2023-07-22T04:29:47;101150.53;;;25.72;36.03
39275;BME280;24980;48.874;2.332;2023-07-22T04:32:17;101150.38;;;25.71;36.02
39275;BME280;24980;48.874;2.332;2023-07-22T04:34:47;101151.15;;;25.70;36.01
39275;BME280;24980;48.874;2.332;2023-07-22T04:37:21;101153.62;;;25.69;36.00
39275;BME280;24980;48.874;2.332;2023-07-22T04:39:52;101155.02;;;25.68;36.00
39275;BME280;24980;48.874;2.332;2023-07-22T04:42:19;101155.45;;;25.68;36.00
39275;BME280;24980;48.874;2.332;2023-07-22T04:44:49;101159.97;;;25.66;36.00
39275;BME280;24980;48.874;2.332;2023-07-22T04:47:19;101161.89;;;25.65;35.99
39275;BME280;24980;48.874;2.332;2023-07-22T04:49:49;101165.48;;;25.63;35.99
39275;BME280;24980;48.874;2.332;2023-07-22T04:52:18;101168.11;;;25.63;35.99
39275;BME280;24980;48.874;2.332;2023-07-22T04:54:49;101163.88;;;25.63;35.98
39275;BME280;24980;48.874;2.332;2023-07-22T04:57:20;101169.44;;;25.61;35.98
39275;BME280;24980;48.874;2.332;2023-07-22T04:59:50;101170.20;;;25.62;35.98
39275;BME280;24980;48.874;2.332;2023-07-22T05:02:20;101165.66;;;25.59;35.97
39275;BME280;24980;48.874;2.332;2023-07-22T05:04:50;101165.62;;;25.57;35.99
39275;BME280;24980;48.874;2.332;2023-07-22T05:07:20;101165.25;;;25.56;36.00
39275;BME280;24980;48.874;2.332;2023-07-22T05:09:50;101162.30;;;25.54;35.99
39275;BME280;24980;48.874;2.332;2023-07-22T05:12:20;101160.61;;;25.54;35.99
39275;BME280;24980;48.874;2.332;2023-07-22T05:14:52;101160.11;;;25.53;35.99
39275;BME280;24980;48.874;2.332;2023-07-22T05:17:20;101161.22;;;25.53;35.99
39275;BME280;24980;48.874;2.332;2023-07-22T05:19:50;101156.94;;;25.52;35.99
39275;BME280;24980;48.874;2.332;2023-07-22T05:22:20;101157.52;;;25.52;35.99
39275;BME280;24980;48.874;2.332;2023-07-22T05:24:50;101153.97;;;25.52;35.99
39275;BME280;24980;48.874;2.332;2023-07-22T05:27:20;101157.80;;;25.51;36.00
39275;BME280;24980;48.874;2.332;2023-07-22T05:29:51;101155.77;;;25.50;36.01
39275;BME280;24980;48.874;2.332;2023-07-22T05:32:21;101158.07;;;25.50;36.02
39275;BME280;24980;48.874;2.332;2023-07-22T05:34:51;101161.30;;;25.49;36.02
39275;BME280;24980;48.874;2.332;2023-07-22T05:37:21;101159.50;;;25.46;36.06
39275;BME280;24980;48.874;2.332;2023-07-22T05:39:51;101158.41;;;25.45;36.05
39275;BME280;24980;48.874;2.332;2023-07-22T05:42:21;101157.84;;;25.44;36.06
39275;BME280;24980;48.874;2.332;2023-07-22T05:44:53;101158.00;;;25.44;36.06
39275;BME280;24980;48.874;2.332;2023-07-22T05:49:52;101158.95;;;25.43;36.08
39275;BME280;24980;48.874;2.332;2023-07-22T05:52:23;101161.38;;;25.41;36.10
39275;BME280;24980;48.874;2.332;2023-07-22T05:54:52;101160.67;;;25.39;36.11
39275;BME280;24980;48.874;2.332;2023-07-22T05:57:22;101159.33;;;25.39;36.11
39275;BME280;24980;48.874;2.332;2023-07-22T05:59:52;101157.64;;;25.38;36.12
39275;BME280;24980;48.874;2.332;2023-07-22T06:02:22;101162.81;;;25.38;36.12
39275;BME280;24980;48.874;2.332;2023-07-22T06:04:52;101157.22;;;25.38;36.12
39275;BME280;24980;48.874;2.332;2023-07-22T06:07:23;101155.33;;;25.35;36.15
39275;BME280;24980;48.874;2.332;2023-07-22T06:09:53;101159.72;;;25.33;36.17
39275;BME280;24980;48.874;2.332;2023-07-22T06:12:23;101158.19;;;25.33;36.16
39275;BME280;24980;48.874;2.332;2023-07-22T06:14:58;101158.48;;;25.34;36.17
39275;BME280;24980;48.874;2.332;2023-07-22T06:17:23;101162.25;;;25.29;36.20
39275;BME280;24980;48.874;2.332;2023-07-22T06:19:56;101163.77;;;25.26;36.24
39275;BME280;24980;48.874;2.332;2023-07-22T06:22:23;101161.66;;;25.25;36.25
39275;BME280;24980;48.874;2.332;2023-07-22T06:24:54;101162.75;;;25.26;36.26
39275;BME280;24980;48.874;2.332;2023-07-22T06:27:27;101165.98;;;25.25;36.28
39275;BME280;24980;48.874;2.332;2023-07-22T06:29:54;101162.86;;;25.24;36.29
39275;BME280;24980;48.874;2.332;2023-07-22T06:32:24;101168.00;;;25.23;36.32
39275;BME280;24980;48.874;2.332;2023-07-22T06:34:54;101168.16;;;25.23;36.34
39275;BME280;24980;48.874;2.332;2023-07-22T06:37:24;101161.05;;;25.22;36.36
39275;BME280;24980;48.874;2.332;2023-07-22T06:39:54;101169.86;;;25.18;36.42
39275;BME280;24980;48.874;2.332;2023-07-22T06:42:24;101170.08;;;25.17;36.44
39275;BME280;24980;48.874;2.332;2023-07-22T06:44:54;101167.46;;;25.16;36.47
39275;BME280;24980;48.874;2.332;2023-07-22T06:47:24;101166.27;;;25.16;36.48
39275;BME280;24980;48.874;2.332;2023-07-22T06:49:55;101169.67;;;25.16;36.51
39275;BME280;24980;48.874;2.332;2023-07-22T06:52:25;101159.61;;;25.18;36.51
39275;BME280;24980;48.874;2.332;2023-07-22T06:54:55;101157.89;;;25.19;36.53
39275;BME280;24980;48.874;2.332;2023-07-22T06:57:25;101158.73;;;25.15;36.60
39275;BME280;24980;48.874;2.332;2023-07-22T06:59:55;101161.62;;;25.15;36.64
39275;BME280;24980;48.874;2.332;2023-07-22T07:02:29;101162.43;;;25.09;36.71
39275;BME280;24980;48.874;2.332;2023-07-22T07:04:55;101166.41;;;25.11;36.76
39275;BME280;24980;48.874;2.332;2023-07-22T07:07:25;101163.48;;;25.12;36.78
39275;BME280;24980;48.874;2.332;2023-07-22T07:09:56;101163.33;;;25.14;36.82
39275;BME280;24980;48.874;2.332;2023-07-22T07:12:26;101162.63;;;25.15;36.90
39275;BME280;24980;48.874;2.332;2023-07-22T07:14:56;101161.62;;;25.15;36.99
39275;BME280;24980;48.874;2.332;2023-07-22T07:17:26;101159.30;;;25.14;37.08
39275;BME280;24980;48.874;2.332;2023-07-22T07:19:57;101159.22;;;25.13;37.12
39275;BME280;24980;48.874;2.332;2023-07-22T07:22:27;101157.09;;;25.13;37.16
39275;BME280;24980;48.874;2.332;2023-07-22T07:24:59;101159.98;;;25.13;37.18
39275;BME280;24980;48.874;2.332;2023-07-22T07:27:28;101160.08;;;25.12;37.20
39275;BME280;24980;48.874;2.332;2023-07-22T07:29:58;101163.73;;;25.11;37.21
39275;BME280;24980;48.874;2.332;2023-07-22T07:32:28;101162.53;;;25.08;37.25
39275;BME280;24980;48.874;2.332;2023-07-22T07:34:58;101165.80;;;25.06;37.26
39275;BME280;24980;48.874;2.332;2023-07-22T07:37:28;101170.47;;;25.06;37.24
39275;BME280;24980;48.874;2.332;2023-07-22T07:39:58;101172.56;;;25.04;37.26
39275;BME280;24980;48.874;2.332;2023-07-22T07:42:29;101175.01;;;25.01;37.29
39275;BME280;24980;48.874;2.332;2023-07-22T07:44:58;101176.80;;;24.99;37.28
39275;BME280;24980;48.874;2.332;2023-07-22T07:47:28;101179.65;;;24.98;37.29
39275;BME280;24980;48.874;2.332;2023-07-22T07:49:58;101181.38;;;24.95;37.31
39275;BME280;24980;48.874;2.332;2023-07-22T07:52:28;101178.55;;;24.93;37.33
39275;BME280;24980;48.874;2.332;2023-07-22T07:54:58;101181.34;;;24.93;37.33
39275;BME280;24980;48.874;2.332;2023-07-22T07:57:28;101173.09;;;24.90;37.36
39275;BME280;24980;48.874;2.332;2023-07-22T07:59:58;101175.98;;;24.89;37.35
39275;BME280;24980;48.874;2.332;2023-07-22T08:02:28;101179.45;;;24.90;37.37
39275;BME280;24980;48.874;2.332;2023-07-22T08:04:59;101181.20;;;24.88;37.38
39275;BME280;24980;48.874;2.332;2023-07-22T08:07:29;101173.66;;;24.87;37.40
39275;BME280;24980;48.874;2.332;2023-07-22T08:10:02;101174.08;;;24.88;37.41
39275;BME280;24980;48.874;2.332;2023-07-22T08:12:37;101176.45;;;24.88;37.42
39275;BME280;24980;48.874;2.332;2023-07-22T08:15:06;101171.14;;;24.85;37.44
39275;BME280;24980;48.874;2.332;2023-07-22T08:17:31;101170.52;;;24.84;37.46
39275;BME280;24980;48.874;2.332;2023-07-22T08:20:01;101165.19;;;24.82;37.50
39275;BME280;24980;48.874;2.332;2023-07-22T08:22:31;101161.97;;;24.82;37.48
39275;BME280;24980;48.874;2.332;2023-07-22T08:25:02;101158.75;;;24.82;37.50
39275;BME280;24980;48.874;2.332;2023-07-22T08:27:32;101159.58;;;24.83;37.50
39275;BME280;24980;48.874;2.332;2023-07-22T08:30:02;101154.32;;;24.84;37.50
39275;BME280;24980;48.874;2.332;2023-07-22T08:32:32;101155.62;;;24.86;37.50
39275;BME280;24980;48.874;2.332;2023-07-22T08:35:05;101152.36;;;24.84;37.52
39275;BME280;24980;48.874;2.332;2023-07-22T08:37:33;101154.94;;;24.86;37.54
39275;BME280;24980;48.874;2.332;2023-07-22T08:40:03;101150.27;;;24.87;37.56
39275;BME280;24980;48.874;2.332;2023-07-22T08:42:35;101150.73;;;24.88;37.58
39275;BME280;24980;48.874;2.332;2023-07-22T08:47:35;101148.93;;;24.90;37.65
39275;BME280;24980;48.874;2.332;2023-07-22T08:50:06;101142.06;;;24.90;37.67
39275;BME280;24980;48.874;2.332;2023-07-22T08:52:36;101144.85;;;24.91;37.69
39275;BME280;24980;48.874;2.332;2023-07-22T08:55:06;101139.59;;;24.91;37.72
39275;BME280;24980;48.874;2.332;2023-07-22T08:57:36;101146.89;;;24.91;37.75
39275;BME280;24980;48.874;2.332;2023-07-22T09:00:11;101145.38;;;24.89;37.79
39275;BME280;24980;48.874;2.332;2023-07-22T09:02:38;101144.27;;;24.89;37.79
39275;BME280;24980;48.874;2.332;2023-07-22T09:05:08;101141.02;;;24.88;37.79
39275;BME280;24980;48.874;2.332;2023-07-22T09:07:39;101145.34;;;24.87;37.80
39275;BME280;24980;48.874;2.332;2023-07-22T09:10:09;101140.88;;;24.86;37.80
39275;BME280;24980;48.874;2.332;2023-07-22T09:12:40;101148.41;;;24.86;37.80
39275;BME280;24980;48.874;2.332;2023-07-22T09:15:12;101142.73;;;24.86;37.79
39275;BME280;24980;48.874;2.332;2023-07-22T09:17:40;101143.16;;;24.86;37.80
39275;BME280;24980;48.874;2.332;2023-07-22T09:20:15;101142.11;;;24.84;37.81
39275;BME280;24980;48.874;2.332;2023-07-22T09:22:44;101140.50;;;24.83;37.80
39275;BME280;24980;48.874;2.332;2023-07-22T09:25:18;101139.41;;;24.83;37.80
39275;BME280;24980;48.874;2.332;2023-07-22T09:27:44;101137.03;;;24.83;37.79
39275;BME280;24980;48.874;2.332;2023-07-22T09:30:30;101135.08;;;24.83;37.78
39275;BME280;24980;48.874;2.332;2023-07-22T09:32:44;101134.82;;;24.84;37.77
39275;BME280;24980;48.874;2.332;2023-07-22T09:35:12;101133.88;;;24.84;37.77
39275;BME280;24980;48.874;2.332;2023-07-22T09:37:47;101135.00;;;24.83;37.77
39275;BME280;24980;48.874;2.332;2023-07-22T09:40:23;101123.38;;;24.83;37.77
39275;BME280;24980;48.874;2.332;2023-07-22T09:42:44;101130.48;;;24.84;37.76
39275;BME280;24980;48.874;2.332;2023-07-22T09:45:17;101124.20;;;24.85;37.77
39275;BME280;24980;48.874;2.332;2023-07-22T09:47:48;101120.86;;;24.86;37.77
39275;BME280;24980;48.874;2.332;2023-07-22T09:50:17;101117.11;;;24.88;37.78
39275;BME280;24980;48.874;2.332;2023-07-22T09:52:52;101115.71;;;24.89;37.79
39275;BME280;24980;48.874;2.332;2023-07-22T09:55:18;101109.77;;;24.89;37.79
39275;BME280;24980;48.874;2.332;2023-07-22T09:57:49;101111.53;;;24.91;37.79
39275;BME280;24980;48.874;2.332;2023-07-22T10:00:17;101116.61;;;24.92;37.79
39275;BME280;24980;48.874;2.332;2023-07-22T10:02:48;101115.95;;;24.90;37.80
39275;BME280;24980;48.874;2.332;2023-07-22T10:05:19;101113.20;;;24.88;37.79
39275;BME280;24980;48.874;2.332;2023-07-22T10:07:50;101113.56;;;24.87;37.78
39275;BME280;24980;48.874;2.332;2023-07-22T10:10:20;101116.78;;;24.86;37.76
39275;BME280;24980;48.874;2.332;2023-07-22T10:12:49;101113.97;;;24.83;37.77
39275;BME280;24980;48.874;2.332;2023-07-22T10:15:19;101110.95;;;24.81;37.76
39275;BME280;24980;48.874;2.332;2023-07-22T10:17:50;101117.06;;;24.80;37.75
39275;BME280;24980;48.874;2.332;2023-07-22T10:20:21;101105.92;;;24.82;37.74
39275;BME280;24980;48.874;2.332;2023-07-22T10:22:51;101115.19;;;24.85;37.72
39275;BME280;24980;48.874;2.332;2023-07-22T10:25:22;101116.07;;;24.85;37.74
39275;BME280;24980;48.874;2.332;2023-07-22T10:27:52;101103.40;;;24.86;37.75
39275;BME280;24980;48.874;2.332;2023-07-22T10:30:22;101104.90;;;24.88;37.75
39275;BME280;24980;48.874;2.332;2023-07-22T10:32:53;101103.62;;;24.88;37.75
39275;BME280;24980;48.874;2.332;2023-07-22T10:37:53;101110.48;;;24.95;37.75
39275;BME280;24980;48.874;2.332;2023-07-22T10:40:28;101107.77;;;25.00;37.77
39275;BME280;24980;48.874;2.332;2023-07-22T10:43:06;101097.68;;;25.04;37.78
39275;BME280;24980;48.874;2.332;2023-07-22T10:45:24;101096.43;;;25.06;37.80
39275;BME280;24980;48.874;2.332;2023-07-22T10:48:07;101092.52;;;25.07;37.83
39275;BME280;24980;48.874;2.332;2023-07-22T10:50:46;101091.62;;;25.09;37.84
39275;BME280;24980;48.874;2.332;2023-07-22T10:53:01;101087.19;;;25.11;37.87
39275;BME280;24980;48.874;2.332;2023-07-22T10:55:27;101089.86;;;25.11;37.89
39275;BME280;24980;48.874;2.332;2023-07-22T10:58:03;101096.03;;;25.13;37.92
39275;BME280;24980;48.874;2.332;2023-07-22T11:00:33;101094.24;;;25.13;37.94
39275;BME280;24980;48.874;2.332;2023-07-22T11:03:10;101086.34;;;25.14;37.95
39275;BME280;24980;48.874;2.332;2023-07-22T11:05:51;101082.22;;;25.15;37.96
39275;BME280;24980;48.874;2.332;2023-07-22T11:08:03;101078.31;;;25.15;37.98
39275;BME280;24980;48.874;2.332;2023-07-22T11:10:29;101070.88;;;25.17;37.99
39275;BME280;24980;48.874;2.332;2023-07-22T11:13:00;101065.80;;;25.17;38.01
39275;BME280;24980;48.874;2.332;2023-07-22T11:15:33;101064.41;;;25.19;38.03
39275;BME280;24980;48.874;2.332;2023-07-22T11:18:00;101059.42;;;25.22;38.04
39275;BME280;24980;48.874;2.332;2023-07-22T11:20:30;101055.53;;;25.25;38.05
39275;BME280;24980;48.874;2.332;2023-07-22T11:23:01;101047.90;;;25.28;38.08
39275;BME280;24980;48.874;2.332;2023-07-22T11:25:33;101042.31;;;25.32;38.07
39275;BME280;24980;48.874;2.332;2023-07-22T11:28:03;101039.26;;;25.35;38.08
39275;BME280;24980;48.874;2.332;2023-07-22T11:30:32;101044.35;;;25.38;38.10
39275;BME280;24980;48.874;2.332;2023-07-22T11:33:03;101044.30;;;25.40;38.10
39275;BME280;24980;48.874;2.332;2023-07-22T11:35:33;101039.34;;;25.42;38.11
39275;BME280;24980;48.874;2.332;2023-07-22T11:38:03;101047.31;;;25.43;38.11
39275;BME280;24980;48.874;2.332;2023-07-22T11:40:34;101047.99;;;25.46;38.10
39275;BME280;24980;48.874;2.332;2023-07-22T11:43:04;101047.59;;;25.48;38.10
39275;BME280;24980;48.874;2.332;2023-07-22T11:45:37;101037.22;;;25.49;38.12
39275;BME280;24980;48.874;2.332;2023-07-22T11:48:09;101037.12;;;25.50;38.12
39275;BME280;24980;48.874;2.332;2023-07-22T11:50:35;101043.05;;;25.51;38.12
39275;BME280;24980;48.874;2.332;2023-07-22T11:53:06;101043.66;;;25.51;38.12
39275;BME280;24980;48.874;2.332;2023-07-22T11:55:36;101044.05;;;25.52;38.12
39275;BME280;24980;48.874;2.332;2023-07-22T11:58:07;101033.39;;;25.53;38.13
39275;BME280;24980;48.874;2.332;2023-07-22T12:00:37;101034.84;;;25.53;38.13
39275;BME280;24980;48.874;2.332;2023-07-22T12:03:08;101020.84;;;25.56;38.13
39275;BME280;24980;48.874;2.332;2023-07-22T12:05:44;101030.42;;;25.57;38.13
39275;BME280;24980;48.874;2.332;2023-07-22T12:08:16;101024.07;;;25.59;38.15
39275;BME280;24980;48.874;2.332;2023-07-22T12:10:38;101023.70;;;25.61;38.15
39275;BME280;24980;48.874;2.332;2023-07-22T12:13:08;101030.59;;;25.63;38.16
39275;BME280;24980;48.874;2.332;2023-07-22T12:15:38;101028.86;;;25.65;38.18
39275;BME280;24980;48.874;2.332;2023-07-22T12:18:08;101020.05;;;25.68;38.18
39275;BME280;24980;48.874;2.332;2023-07-22T12:20:40;101012.84;;;25.71;38.17
39275;BME280;24980;48.874;2.332;2023-07-22T12:23:09;101023.05;;;25.73;38.17
39275;BME280;24980;48.874;2.332;2023-07-22T12:25:39;101016.05;;;25.74;38.17
39275;BME280;24980;48.874;2.332;2023-07-22T12:28:09;101010.12;;;25.77;38.16
39275;BME280;24980;48.874;2.332;2023-07-22T12:30:39;101002.00;;;25.78;38.16
39275;BME280;24980;48.874;2.332;2023-07-22T12:33:09;100988.12;;;25.80;38.19
39275;BME280;24980;48.874;2.332;2023-07-22T12:35:39;101003.39;;;25.81;38.21
39275;BME280;24980;48.874;2.332;2023-07-22T12:38:09;101002.06;;;25.82;38.22
39275;BME280;24980;48.874;2.332;2023-07-22T12:40:39;100999.85;;;25.83;38.21
39275;BME280;24980;48.874;2.332;2023-07-22T12:43:11;100994.68;;;25.85;38.22
39275;BME280;24980;48.874;2.332;2023-07-22T12:45:46;100989.97;;;25.88;38.19
39275;BME280;24980;48.874;2.332;2023-07-22T12:48:15;100990.41;;;25.90;38.17
39275;BME280;24980;48.874;2.332;2023-07-22T12:50:42;100982.88;;;25.91;38.16
39275;BME280;24980;48.874;2.332;2023-07-22T12:53:12;100980.23;;;25.92;38.15
39275;BME280;24980;48.874;2.332;2023-07-22T12:55:43;100988.03;;;25.93;38.12
39275;BME280;24980;48.874;2.332;2023-07-22T12:58:14;100994.08;;;25.95;38.13
39275;BME280;24980;48.874;2.332;2023-07-22T13:00:44;100987.95;;;25.95;38.11
39275;BME280;24980;48.874;2.332;2023-07-22T13:03:17;100988.77;;;25.97;38.08
39275;BME280;24980;48.874;2.332;2023-07-22T13:05:45;100980.83;;;25.98;38.09
39275;BME280;24980;48.874;2.332;2023-07-22T13:08:15;100981.66;;;25.99;38.09
39275;BME280;24980;48.874;2.332;2023-07-22T13:10:45;100983.60;;;26.00;38.09
39275;BME280;24980;48.874;2.332;2023-07-22T13:13:15;100972.98;;;26.00;38.07
39275;BME280;24980;48.874;2.332;2023-07-22T13:15:48;100980.02;;;26.01;38.06